CCGS Tanu — CGBY — position and weather

sailwx.info

Track history (hours):
 
Tides and Currents Weather Stations Pressure Air Temp Water Temp Dewpoint Dewpoint Depression Visibility Wind Speed Wind Dir Waves Ship Positions

CCGS Tanu (Canada)

Ship's website: http://www.ccg-gcc.gc.ca/vessels-navires/details_e.asp?id=M-5

Last reported at 2015-Aug-21 03:20 UTC. Time now 2015-Sep-01 12:03 UTC.
Position N 50°52' W 127°52'.
Warning: this ship's position is 11 days out of date.

Length 54.5 m; beam 9.7 m; draft 3.7 m.

Type: SAR. MMSI: 316091000.

Date/timePositionNaut miles runAvg speedWind from/ knotsBaromVisibWave heightAir tempDewpointWater temp
2015-Aug-21 03:20N 50°52' W 127°52'7 9.0
2015-Aug-21 02:33N 50°50' W 127°42'9 9.4
2015-Aug-21 01:34N 50°46' W 127°28'3 0.7
2015-Aug-20 21:29N 50°43' W 127°29'0 0.0
2015-Aug-20 20:29N 50°43' W 127°29'0 0.0
2015-Aug-20 19:29N 50°43' W 127°29'0 0.0
2015-Aug-20 18:29N 50°43' W 127°29'0 0.0
2015-Aug-20 17:29N 50°43' W 127°29'0 0.0
2015-Aug-20 16:29N 50°43' W 127°29'0 0.0
2015-Aug-20 08:23N 50°43' W 127°29'0 0.0
2015-Aug-20 07:29N 50°43' W 127°29'0 0.0
2015-Aug-20 06:23N 50°43' W 127°29'0 0.0
2015-Aug-20 05:29N 50°43' W 127°29'0 0.0
2015-Aug-20 04:29N 50°43' W 127°29'0 0.0
2015-Aug-20 02:31N 50°43' W 127°29'0 0.2
2015-Aug-20 01:16N 50°43' W 127°29'0 0.1
2015-Aug-20 00:33N 50°44' W 127°29'8 8.3
2015-Aug-19 23:33N 50°49' W 127°39'13 1.3
2015-Aug-19 13:34N 50°58' W 127°52'1312.7
2015-Aug-19 12:33N 50°52' W 127°34'10 7.7
2015-Aug-19 11:19N 50°43' W 127°29'0 0.0
2015-Aug-19 10:31N 50°43' W 127°29'0 0.0
2015-Aug-19 09:25N 50°43' W 127°29'0 0.0
2015-Aug-19 08:25N 50°43' W 127°29'0 0.0
2015-Aug-19 07:31N 50°43' W 127°29'0 0.0
2015-Aug-19 01:07N 50°43' W 127°29'0 0.0
2015-Aug-19 00:31N 50°43' W 127°29'0 0.0
2015-Aug-18 22:13N 50°43' W 127°29'0 0.6
2015-Aug-18 21:33N 50°44' W 127°29'1 0.2
2015-Aug-18 18:30N 50°43' W 127°28'1 0.8
2015-Aug-18 17:30N 50°44' W 127°29'0 0.0
2015-Aug-18 13:30N 50°44' W 127°29'0 0.0
2015-Aug-18 11:30N 50°44' W 127°29'0 0.0
2015-Aug-18 10:12N 50°44' W 127°29'0 0.0
2015-Aug-18 08:30N 50°44' W 127°29'0 0.1
2015-Aug-18 07:33N 50°44' W 127°29'6 5.5
2015-Aug-18 06:30N 50°49' W 127°27'8 8.4
2015-Aug-18 05:33N 50°54' W 127°37'1210.3
2015-Aug-18 04:23N 51°01' W 127°53'  
Track history (hours):
 
Tides and Currents Weather Stations Pressure Air Temp Water Temp Dewpoint Dewpoint Depression Visibility Wind Speed Wind Dir Waves Ship Positions

CCGS Tanu (Canada)

Ship's website: http://www.ccg-gcc.gc.ca/vessels-navires/details_e.asp?id=M-5

Last reported at 2015-Aug-21 03:20 UTC. Time now 2015-Sep-01 12:03 UTC.
Position N 50°52' W 127°52'.
Warning: this ship's position is 11 days out of date.

Length 54.5 m; beam 9.7 m; draft 3.7 m.

Type: SAR. MMSI: 316091000.

Date/timePositionNaut miles runAvg speedWind from/ knotsBaromVisibWave heightAir tempDewpointWater temp
2015-Aug-21 03:20N 50°52' W 127°52'7 9.0
2015-Aug-21 02:33N 50°50' W 127°42'9 9.4
2015-Aug-21 01:34N 50°46' W 127°28'3 0.7
2015-Aug-20 21:29N 50°43' W 127°29'0 0.0
2015-Aug-20 20:29N 50°43' W 127°29'0 0.0
2015-Aug-20 19:29N 50°43' W 127°29'0 0.0
2015-Aug-20 18:29N 50°43' W 127°29'0 0.0
2015-Aug-20 17:29N 50°43' W 127°29'0 0.0
2015-Aug-20 16:29N 50°43' W 127°29'0 0.0
2015-Aug-20 08:23N 50°43' W 127°29'0 0.0
2015-Aug-20 07:29N 50°43' W 127°29'0 0.0
2015-Aug-20 06:23N 50°43' W 127°29'0 0.0
2015-Aug-20 05:29N 50°43' W 127°29'0 0.0
2015-Aug-20 04:29N 50°43' W 127°29'0 0.0
2015-Aug-20 02:31N 50°43' W 127°29'0 0.2
2015-Aug-20 01:16N 50°43' W 127°29'0 0.1
2015-Aug-20 00:33N 50°44' W 127°29'8 8.3
2015-Aug-19 23:33N 50°49' W 127°39'13 1.3
2015-Aug-19 13:34N 50°58' W 127°52'1312.7
2015-Aug-19 12:33N 50°52' W 127°34'10 7.7
2015-Aug-19 11:19N 50°43' W 127°29'0 0.0
2015-Aug-19 10:31N 50°43' W 127°29'0 0.0
2015-Aug-19 09:25N 50°43' W 127°29'0 0.0
2015-Aug-19 08:25N 50°43' W 127°29'0 0.0
2015-Aug-19 07:31N 50°43' W 127°29'0 0.0
2015-Aug-19 01:07N 50°43' W 127°29'0 0.0
2015-Aug-19 00:31N 50°43' W 127°29'0 0.0
2015-Aug-18 22:13N 50°43' W 127°29'0 0.6
2015-Aug-18 21:33N 50°44' W 127°29'1 0.2
2015-Aug-18 18:30N 50°43' W 127°28'1 0.8
2015-Aug-18 17:30N 50°44' W 127°29'0 0.0
2015-Aug-18 13:30N 50°44' W 127°29'0 0.0
2015-Aug-18 11:30N 50°44' W 127°29'0 0.0
2015-Aug-18 10:12N 50°44' W 127°29'0 0.0
2015-Aug-18 08:30N 50°44' W 127°29'0 0.1
2015-Aug-18 07:33N 50°44' W 127°29'6 5.5
2015-Aug-18 06:30N 50°49' W 127°27'8 8.4
2015-Aug-18 05:33N 50°54' W 127°37'1210.3
2015-Aug-18 04:23N 51°01' W 127°53'  

Dump ship's entire track history